createdAt,value
2023-01-06T00:00:39.471Z,101324.72
2023-01-06T00:03:09.122Z,101316.72
2023-01-06T00:05:36.600Z,101314.25
2023-01-06T00:08:05.362Z,101305.56
2023-01-06T00:10:32.812Z,101311.75
2023-01-06T00:13:00.182Z,101307.84
2023-01-06T00:15:28.149Z,101297.75
2023-01-06T00:17:55.560Z,101303.75
2023-01-06T00:20:22.927Z,101306.41
2023-01-06T00:22:50.360Z,101307.44
2023-01-06T00:25:19.063Z,101301.06
2023-01-06T00:27:46.451Z,101299.38
2023-01-06T00:30:14.243Z,101296.94
2023-01-06T00:32:41.620Z,101293.25
2023-01-06T00:35:09.685Z,101292.00
2023-01-06T00:37:37.040Z,101292.84
2023-01-06T00:40:04.890Z,101279.03
2023-01-06T00:42:33.666Z,101278.84
2023-01-06T00:45:01.046Z,101275.56
2023-01-06T00:47:28.442Z,101271.25
2023-01-06T00:49:55.820Z,101270.63
2023-01-06T00:52:23.185Z,101262.78
2023-01-06T00:54:50.575Z,101264.44
2023-01-06T00:57:17.980Z,101265.66
2023-01-06T00:59:46.790Z,101269.38
2023-01-06T01:02:14.326Z,101257.88
2023-01-06T01:04:41.869Z,101251.69
2023-01-06T01:07:10.326Z,101250.06
2023-01-06T01:09:37.685Z,101243.88
2023-01-06T01:12:12.540Z,101245.31
2023-01-06T01:14:42.355Z,101249.63
2023-01-06T01:17:13.221Z,101243.47
2023-01-06T01:19:40.887Z,101242.66
2023-01-06T01:22:09.047Z,101231.53
2023-01-06T01:24:36.431Z,101231.53
2023-01-06T01:27:04.004Z,101237.50
2023-01-06T01:29:31.554Z,101238.72
2023-01-06T01:31:59.013Z,101225.38
2023-01-06T01:34:27.905Z,101226.19
2023-01-06T01:36:56.626Z,101216.31
2023-01-06T01:39:26.319Z,101217.53
2023-01-06T01:41:54.610Z,101212.59
2023-01-06T01:44:57.305Z,101208.50
2023-01-06T01:47:29.775Z,101204.19
2023-01-06T01:50:02.320Z,101208.72
2023-01-06T01:52:29.961Z,101199.25
2023-01-06T01:54:57.661Z,101195.78
2023-01-06T01:57:30.819Z,101188.34
2023-01-06T01:59:58.491Z,101188.72
2023-01-06T02:02:26.105Z,101191.22
2023-01-06T02:04:55.636Z,101187.31
2023-01-06T02:07:26.335Z,101181.75
2023-01-06T02:10:03.564Z,101187.09
2023-01-06T02:12:31.384Z,101183.00
2023-01-06T02:14:58.864Z,101183.59
2023-01-06T02:17:45.156Z,101180.72
2023-01-06T02:20:28.758Z,101174.38
2023-01-06T02:23:13.090Z,101161.59
2023-01-06T02:26:04.339Z,101167.97
2023-01-06T02:29:01.113Z,101170.66
2023-01-06T02:31:43.049Z,101163.88
2023-01-06T02:34:14.685Z,101161.97
2023-01-06T02:36:46.668Z,101151.31
2023-01-06T02:39:22.551Z,101155.19
2023-01-06T02:41:56.548Z,101150.47
2023-01-06T02:44:28.635Z,101143.84
2023-01-06T02:47:09.483Z,101129.66
2023-01-06T02:49:43.991Z,101134.34
2023-01-06T02:52:16.028Z,101134.34
2023-01-06T02:54:46.167Z,101125.91
2023-01-06T02:57:17.230Z,101120.97
2023-01-06T02:59:48.417Z,101122.81
2023-01-06T03:02:18.449Z,101121.16
2023-01-06T03:04:48.119Z,101108.63
2023-01-06T03:07:16.693Z,101101.19
2023-01-06T03:09:44.834Z,101109.19
2023-01-06T03:12:22.031Z,101104.66
2023-01-06T03:14:52.308Z,101100.13
2023-01-06T03:17:21.292Z,101103.59
2023-01-06T03:19:48.840Z,101086.50
2023-01-06T03:22:17.016Z,101085.66
2023-01-06T03:24:45.179Z,101087.09
2023-01-06T03:27:12.712Z,101078.88
2023-01-06T03:29:40.315Z,101071.88
2023-01-06T03:32:13.833Z,101074.50
2023-01-06T03:34:52.916Z,101055.16
2023-01-06T03:37:27.340Z,101051.22
2023-01-06T03:40:03.363Z,101052.81
2023-01-06T03:42:53.550Z,101061.66
2023-01-06T03:45:32.674Z,101053.56
2023-01-06T03:48:06.535Z,101050.88
2023-01-06T03:50:38.384Z,101042.84
2023-01-06T03:53:17.433Z,101043.44
2023-01-06T03:55:47.805Z,101046.31
2023-01-06T03:58:17.006Z,101045.06
2023-01-06T04:00:44.498Z,101054.69
2023-01-06T04:03:14.016Z,101041.06
2023-01-06T04:05:42.784Z,101043.34
2023-01-06T04:08:10.273Z,101039.19
2023-01-06T04:10:37.748Z,101035.09
2023-01-06T04:13:04.195Z,101030.91
2023-01-06T04:15:32.518Z,101022.72
2023-01-06T04:18:00.294Z,101023.91
2023-01-06T04:20:29.051Z,101023.47
2023-01-06T04:22:58.909Z,101026.16
2023-01-06T04:25:26.756Z,101007.78
2023-01-06T04:27:54.289Z,101001.38
2023-01-06T04:30:21.867Z,100997.13
2023-01-06T04:32:49.306Z,100997.50
2023-01-06T04:35:16.758Z,100997.91
2023-01-06T04:37:44.157Z,100991.50
2023-01-06T04:40:13.331Z,100991.03
2023-01-06T04:42:58.108Z,100990.09
2023-01-06T04:45:25.496Z,100981.38
2023-01-06T04:47:52.867Z,100971.91
2023-01-06T04:50:20.225Z,100970.44
2023-01-06T04:52:47.588Z,100961.13
2023-01-06T04:55:16.333Z,100966.50
2023-01-06T04:57:43.797Z,100962.94
2023-01-06T05:00:12.525Z,100957.78
2023-01-06T05:02:39.890Z,100954.31
2023-01-06T05:05:08.196Z,100956.69
2023-01-06T05:07:35.573Z,100955.72
2023-01-06T05:10:02.989Z,100954.31
2023-01-06T05:12:31.795Z,100954.97
2023-01-06T05:14:59.257Z,100949.38
2023-01-06T05:17:26.774Z,100946.84
2023-01-06T05:19:54.425Z,100948.25
2023-01-06T05:22:21.873Z,100947.91
2023-01-06T05:24:49.313Z,100940.38
2023-01-06T05:27:16.727Z,100939.66
2023-01-06T05:29:45.416Z,100934.03
2023-01-06T05:32:12.798Z,100938.13
2023-01-06T05:34:40.183Z,100938.97
2023-01-06T05:37:07.537Z,100935.00
2023-01-06T05:39:34.941Z,100926.53
2023-01-06T05:42:02.356Z,100933.53
2023-01-06T05:44:29.713Z,100937.16
2023-01-06T05:46:58.432Z,100933.19
2023-01-06T05:49:25.821Z,100947.44
2023-01-06T05:51:53.171Z,100934.16
2023-01-06T05:54:20.573Z,100939.81
2023-01-06T05:56:48.056Z,100924.13
2023-01-06T05:59:15.671Z,100924.03
2023-01-06T06:01:43.208Z,100920.09
2023-01-06T06:04:14.483Z,100920.53
2023-01-06T06:06:42.264Z,100921.81
2023-01-06T06:09:09.656Z,100926.88
2023-01-06T06:11:37.051Z,100919.41
2023-01-06T06:14:04.442Z,100920.69
2023-01-06T06:16:31.859Z,100915.22
2023-01-06T06:18:59.852Z,100911.56
2023-01-06T06:21:30.166Z,100915.22
2023-01-06T06:23:58.623Z,100909.03
2023-01-06T06:26:26.569Z,100906.34
2023-01-06T06:28:53.918Z,100918.72
2023-01-06T06:31:23.332Z,100924.47
2023-01-06T06:33:51.653Z,100913.47
2023-01-06T06:36:19.153Z,100906.56
2023-01-06T06:38:49.171Z,100911.50
2023-01-06T06:41:16.723Z,100913.72
2023-01-06T06:43:44.167Z,100898.59
2023-01-06T06:46:12.044Z,100902.16
2023-01-06T06:48:39.886Z,100914.91
2023-01-06T06:51:08.949Z,100903.00
2023-01-06T06:53:36.666Z,100889.22
2023-01-06T06:56:07.197Z,100898.09
2023-01-06T06:58:34.875Z,100876.19
2023-01-06T07:01:04.916Z,100877.47
2023-01-06T07:03:32.327Z,100872.84
2023-01-06T07:06:00.538Z,100883.00
2023-01-06T07:08:28.460Z,100878.91
2023-01-06T07:10:55.832Z,100878.47
2023-01-06T07:13:24.526Z,100870.63
2023-01-06T07:15:51.915Z,100872.75
2023-01-06T07:18:19.349Z,100879.03
2023-01-06T07:20:49.606Z,100885.09
2023-01-06T07:23:17.024Z,100871.13
2023-01-06T07:25:44.486Z,100875.19
2023-01-06T07:28:11.911Z,100878.09
2023-01-06T07:30:40.627Z,100880.56
2023-01-06T07:33:08.705Z,100873.28
2023-01-06T07:35:36.090Z,100873.66
2023-01-06T07:38:04.493Z,100869.09
2023-01-06T07:40:32.198Z,100865.16
2023-01-06T07:42:59.651Z,100861.41
2023-01-06T07:45:27.061Z,100869.09
2023-01-06T07:47:57.930Z,100853.00
2023-01-06T07:50:26.498Z,100850.31
2023-01-06T07:52:54.112Z,100846.31
2023-01-06T07:55:22.192Z,100849.75
2023-01-06T07:57:50.660Z,100839.72
2023-01-06T08:00:19.543Z,100830.88
2023-01-06T08:02:47.840Z,100847.19
2023-01-06T08:05:17.469Z,100841.22
2023-01-06T08:07:45.209Z,100839.94
2023-01-06T08:10:14.289Z,100834.59
2023-01-06T08:12:42.372Z,100826.94
2023-01-06T09:21:26.177Z,100812.94
2023-01-06T09:23:53.664Z,100813.16
2023-01-06T09:26:21.628Z,100808.84
2023-01-06T09:28:50.402Z,100812.59
2023-01-06T09:31:18.919Z,100809.91
2023-01-06T09:33:46.426Z,100817.47
2023-01-06T09:36:13.935Z,100818.31
2023-01-06T09:38:41.649Z,100813.16
2023-01-06T09:41:44.516Z,100816.69
2023-01-06T09:44:15.931Z,100812.22
2023-01-06T09:46:46.206Z,100822.03
2023-01-06T09:49:18.660Z,100828.34
2023-01-06T09:51:46.555Z,100819.13
2023-01-06T09:54:17.142Z,100824.50
2023-01-06T09:56:46.453Z,100830.00
2023-01-06T09:59:19.776Z,100824.03
2023-01-06T10:01:50.250Z,100816.31
2023-01-06T10:04:19.753Z,100814.13
2023-01-06T10:06:52.568Z,100825.19
2023-01-06T10:09:23.531Z,100823.56
2023-01-06T10:12:00.844Z,100814.69
2023-01-06T10:14:38.539Z,100816.78
2023-01-06T10:17:18.196Z,100821.09
2023-01-06T10:19:59.663Z,100819.81
2023-01-06T10:22:34.620Z,100809.66
2023-01-06T10:25:08.228Z,100813.63
2023-01-06T10:27:37.788Z,100805.00
2023-01-06T10:30:17.436Z,100805.25
2023-01-06T10:32:45.528Z,100805.59
2023-01-06T10:35:14.373Z,100810.72
2023-01-06T10:37:43.099Z,100811.31
2023-01-06T10:40:19.315Z,100808.38
2023-01-06T10:42:57.735Z,100806.75
2023-01-06T10:45:28.651Z,100800.31
2023-01-06T10:47:56.617Z,100798.59
2023-01-06T10:50:24.081Z,100801.63
2023-01-06T10:52:51.542Z,100811.19
2023-01-06T10:55:30.452Z,100812.34
2023-01-06T10:58:01.341Z,100803.50
2023-01-06T11:00:32.238Z,100808.72
2023-01-06T11:03:19.435Z,100799.66
2023-01-06T11:06:08.895Z,100806.19
2023-01-06T11:08:37.810Z,100802.66
2023-01-06T11:11:16.549Z,100803.72
2023-01-06T11:13:51.611Z,100808.03
2023-01-06T11:16:23.398Z,100803.34
2023-01-06T11:18:55.333Z,100802.91
2023-01-06T11:21:23.011Z,100808.25
2023-01-06T11:23:50.576Z,100804.50
2023-01-06T11:26:20.029Z,100807.91
2023-01-06T11:28:48.440Z,100817.50
2023-01-06T11:31:22.168Z,100804.84
2023-01-06T11:33:52.257Z,100809.19
2023-01-06T11:36:21.822Z,100816.75
2023-01-06T11:38:51.406Z,100798.56
2023-01-06T11:41:25.968Z,100790.84
2023-01-06T11:43:56.617Z,100804.97
2023-01-06T11:46:26.408Z,100807.53
2023-01-06T11:49:00.206Z,100801.09
2023-01-06T11:51:47.460Z,100804.28
2023-01-06T11:54:27.183Z,100815.81
2023-01-06T11:57:04.133Z,100821.56
2023-01-06T11:59:43.622Z,100818.75
2023-01-06T12:02:19.434Z,100813.13
2023-01-06T12:04:49.578Z,100834.53
2023-01-06T12:07:21.394Z,100829.28
2023-01-06T12:09:49.890Z,100832.09
2023-01-06T12:12:21.103Z,100849.00
2023-01-06T12:14:48.923Z,100852.28
2023-01-06T12:17:25.653Z,100859.38
2023-01-06T12:19:57.072Z,100873.88
2023-01-06T12:22:29.419Z,100875.03
2023-01-06T12:24:58.127Z,100867.66
2023-01-06T12:27:38.197Z,100888.44
2023-01-06T12:30:11.763Z,100887.31
2023-01-06T12:32:43.677Z,100890.56
2023-01-06T12:35:15.576Z,100893.59
2023-01-06T12:37:46.274Z,100897.09
2023-01-06T12:40:16.853Z,100891.13
2023-01-06T12:42:48.437Z,100901.63
2023-01-06T12:45:18.842Z,100893.69
2023-01-06T12:47:52.639Z,100907.50
2023-01-06T12:50:27.829Z,100914.28
2023-01-06T12:53:01.237Z,100914.63
2023-01-06T12:55:40.694Z,100920.56
2023-01-06T12:58:14.111Z,100924.06
2023-01-06T13:00:48.482Z,100924.19
2023-01-06T13:03:33.175Z,100919.53
2023-01-06T13:06:18.620Z,100914.03
2023-01-06T13:09:02.664Z,100915.78
2023-01-06T13:11:39.784Z,100920.81
2023-01-06T13:14:12.841Z,100925.69
2023-01-06T13:16:43.952Z,100927.22
2023-01-06T13:19:30.563Z,100925.00
2023-01-06T13:22:00.998Z,100925.47
2023-01-06T13:24:40.112Z,100935.16
2023-01-06T13:27:21.291Z,100921.25
2023-01-06T13:30:01.939Z,100935.28
2023-01-06T13:32:39.357Z,100938.88
2023-01-06T13:35:33.439Z,100940.28
2023-01-06T13:38:06.721Z,100933.28
2023-01-06T13:40:38.047Z,100940.28
2023-01-06T13:43:08.458Z,100942.97
2023-01-06T13:45:38.414Z,100947.16
2023-01-06T13:48:08.935Z,100947.53
2023-01-06T13:50:38.330Z,100945.44
2023-01-06T13:53:06.133Z,100942.06
2023-01-06T13:55:36.625Z,100950.47
2023-01-06T13:58:37.619Z,100954.06
2023-01-06T14:01:06.566Z,100951.75
2023-01-06T14:03:34.790Z,100953.81
2023-01-06T14:06:04.563Z,100951.41
2023-01-06T14:08:35.698Z,100963.06
2023-01-06T14:11:06.095Z,100957.78
2023-01-06T14:13:36.158Z,100968.31
2023-01-06T14:16:07.626Z,100963.41
2023-01-06T14:18:41.463Z,100966.78
2023-01-06T14:21:20.434Z,100969.34
2023-01-06T14:23:53.909Z,100970.28
2023-01-06T14:26:22.011Z,100975.75
2023-01-06T14:28:49.653Z,100981.81
2023-01-06T14:31:47.731Z,100988.34
2023-01-06T14:34:17.691Z,100996.53
2023-01-06T14:36:49.147Z,100993.38
2023-01-06T14:39:23.824Z,100995.63
2023-01-06T14:42:00.750Z,101004.13
2023-01-06T14:44:35.253Z,100999.91
2023-01-06T14:47:06.270Z,101008.81
2023-01-06T14:49:40.126Z,101007.19
2023-01-06T14:52:13.274Z,101005.75
2023-01-06T14:54:44.460Z,101012.22
2023-01-06T14:57:25.167Z,101025.28
2023-01-06T15:00:06.838Z,101030.88
2023-01-06T15:02:34.930Z,101038.47
2023-01-06T15:05:03.207Z,101033.09
2023-01-06T15:07:32.330Z,101035.00
2023-01-06T15:10:21.172Z,101043.53
2023-01-06T15:12:56.652Z,101040.97
2023-01-06T15:15:26.570Z,101034.44
2023-01-06T15:17:55.674Z,101043.91
2023-01-06T15:20:28.615Z,101047.19
2023-01-06T15:22:57.808Z,101046.91
2023-01-06T15:25:27.074Z,101046.81
2023-01-06T15:27:57.172Z,101056.66
2023-01-06T15:30:26.777Z,101056.66
2023-01-06T15:32:55.027Z,101059.06
2023-01-06T15:35:25.571Z,101060.38
2023-01-06T15:38:01.057Z,101063.66
2023-01-06T15:40:28.871Z,101060.25
2023-01-06T15:42:56.812Z,101069.13
2023-01-06T15:45:27.502Z,101064.09
2023-01-06T15:47:57.003Z,101075.88
2023-01-06T15:50:27.100Z,101070.53
2023-01-06T15:52:56.540Z,101063.41
2023-01-06T15:55:28.388Z,101070.97
2023-01-06T15:57:59.957Z,101069.81
2023-01-06T16:00:29.786Z,101068.41
2023-01-06T16:02:59.309Z,101072.47
2023-01-06T16:05:34.988Z,101074.47
2023-01-06T16:08:04.187Z,101074.59
2023-01-06T16:10:36.238Z,101073.75
2023-01-06T16:13:17.450Z,101078.53
2023-01-06T16:15:46.919Z,101084.84
2023-01-06T16:18:14.966Z,101088.06
2023-01-06T16:20:42.792Z,101075.00
2023-01-06T16:23:19.208Z,101076.97
2023-01-06T16:25:48.067Z,101091.28
2023-01-06T16:28:21.584Z,101079.88
2023-01-06T16:31:05.240Z,101082.66
2023-01-06T16:33:36.667Z,101085.56
2023-01-06T16:36:04.282Z,101083.13
2023-01-06T16:38:31.876Z,101076.31
2023-01-06T16:41:00.651Z,101086.47
2023-01-06T16:43:28.120Z,101089.78
2023-01-06T16:45:55.991Z,101087.41
2023-01-06T16:48:23.798Z,101098.19
2023-01-06T16:50:54.841Z,101091.50
2023-01-06T16:53:23.790Z,101090.75
2023-01-06T16:55:52.346Z,101103.06
2023-01-06T16:58:22.499Z,101095.81
2023-01-06T17:00:52.459Z,101106.09
2023-01-06T17:03:21.311Z,101092.81
2023-01-06T17:05:49.105Z,101101.44
2023-01-06T17:08:18.630Z,101096.91
2023-01-06T17:10:46.220Z,101105.28
2023-01-06T17:13:33.301Z,101103.22
2023-01-06T17:16:07.051Z,101108.66
2023-01-06T17:18:35.133Z,101100.59
2023-01-06T17:21:09.955Z,101105.00
2023-01-06T17:23:40.972Z,101100.91
2023-01-06T17:26:12.411Z,101108.06
2023-01-06T17:28:39.833Z,101123.34
2023-01-06T17:31:12.298Z,101122.75
2023-01-06T17:33:39.801Z,101115.91
2023-01-06T17:36:19.923Z,101118.28
2023-01-06T17:38:48.622Z,101116.66
2023-01-06T17:41:16.706Z,101129.84
2023-01-06T17:43:44.470Z,101122.78
2023-01-06T17:46:21.260Z,101133.34
2023-01-06T17:48:49.864Z,101130.81
2023-01-06T17:51:17.486Z,101132.31
2023-01-06T17:54:02.240Z,101125.97
2023-01-06T17:56:29.626Z,101137.75
2023-01-06T17:59:00.339Z,101135.59
2023-01-06T18:01:30.124Z,101140.28
2023-01-06T18:03:59.986Z,101143.59
2023-01-06T18:06:30.690Z,101151.09
2023-01-06T18:09:08.374Z,101151.47
2023-01-06T18:11:37.011Z,101157.72
2023-01-06T18:14:25.336Z,101150.50
2023-01-06T18:16:56.526Z,101155.66
2023-01-06T18:19:27.362Z,101166.38
2023-01-06T18:21:55.114Z,101160.56
2023-01-06T18:24:26.786Z,101157.66
2023-01-06T18:26:59.130Z,101169.28
2023-01-06T18:29:29.871Z,101154.53
2023-01-06T18:32:16.891Z,101158.69
2023-01-06T18:34:44.740Z,101161.53
2023-01-06T18:37:12.235Z,101160.09
2023-01-06T18:39:42.871Z,101158.31
2023-01-06T18:42:19.917Z,101162.34
2023-01-06T18:44:47.543Z,101160.31
2023-01-06T18:47:18.685Z,101157.50
2023-01-06T18:49:46.637Z,101171.88
2023-01-06T18:52:28.058Z,101173.94
2023-01-06T18:54:55.871Z,101172.78
2023-01-06T18:57:28.312Z,101185.16
2023-01-06T18:59:55.898Z,101181.41
2023-01-06T19:02:34.763Z,101182.53
2023-01-06T19:05:02.091Z,101179.22
2023-01-06T19:07:31.003Z,101180.84
2023-01-06T19:09:58.729Z,101172.81
2023-01-06T19:12:29.966Z,101182.75
2023-01-06T19:15:00.283Z,101176.97
2023-01-06T19:17:31.518Z,101189.34
2023-01-06T19:20:04.463Z,101177.34
2023-01-06T19:22:34.113Z,101189.34
2023-01-06T19:25:03.299Z,101192.22
2023-01-06T19:27:40.860Z,101188.81
2023-01-06T19:30:42.046Z,101189.84
2023-01-06T19:33:29.694Z,101184.69
2023-01-06T19:36:19.575Z,101185.91
2023-01-06T19:38:47.301Z,101186.59
2023-01-06T19:41:20.203Z,101182.91
2023-01-06T19:43:48.532Z,101180.50
2023-01-06T19:46:22.194Z,101191.28
2023-01-06T19:48:51.431Z,101182.34
2023-01-06T19:51:29.987Z,101182.91
2023-01-06T19:54:00.140Z,101189.47
2023-01-06T19:56:30.837Z,101189.84
2023-01-06T19:59:00.130Z,101185.91
2023-01-06T20:01:28.855Z,101196.84
2023-01-06T20:03:58.137Z,101197.28
2023-01-06T20:06:25.695Z,101190.47
2023-01-06T20:08:53.850Z,101196.50
2023-01-06T20:11:22.345Z,101186.44
2023-01-06T20:13:49.928Z,101190.16
2023-01-06T20:16:17.681Z,101190.84
2023-01-06T20:18:45.066Z,101192.91
2023-01-06T20:21:14.290Z,101197.09
2023-01-06T20:23:41.696Z,101197.09
2023-01-06T20:26:09.158Z,101192.69
2023-01-06T20:28:36.687Z,101191.31
2023-01-06T20:31:04.233Z,101196.34
2023-01-06T20:33:31.791Z,101187.53
2023-01-06T20:35:59.306Z,101191.66
2023-01-06T20:38:28.094Z,101186.47
2023-01-06T20:40:55.644Z,101186.19
2023-01-06T20:43:23.022Z,101184.00
2023-01-06T20:45:50.513Z,101184.31
2023-01-06T20:48:17.912Z,101185.78
2023-01-06T20:50:45.366Z,101186.78
2023-01-06T20:53:12.806Z,101185.78
2023-01-06T20:55:41.805Z,101204.50
2023-01-06T20:58:09.266Z,101199.94
2023-01-06T21:00:36.666Z,101203.63
2023-01-06T21:03:04.317Z,101200.41
2023-01-06T21:05:32.032Z,101205.34
2023-01-06T21:07:59.499Z,101207.41
2023-01-06T21:10:27.334Z,101205.56
2023-01-06T21:12:57.530Z,101206.59
2023-01-06T21:15:26.034Z,101210.69
2023-01-06T21:17:53.544Z,101208.03
2023-01-06T21:20:21.099Z,101206.25
2023-01-06T21:22:48.508Z,101200.44
2023-01-06T21:25:18.991Z,101202.28
2023-01-06T21:27:46.398Z,101198.00
2023-01-06T21:30:15.810Z,101202.53
2023-01-06T21:32:43.274Z,101203.19
2023-01-06T21:35:10.905Z,101201.94
2023-01-06T21:37:38.303Z,101199.28
2023-01-06T21:40:07.850Z,101199.03
2023-01-06T21:42:52.519Z,101201.94
2023-01-06T21:45:21.319Z,101194.75
2023-01-06T21:47:48.918Z,101205.09
2023-01-06T21:50:16.519Z,101198.84
2023-01-06T21:52:44.848Z,101199.53
2023-01-06T21:55:13.083Z,101189.41
2023-01-06T21:57:41.080Z,101191.28
2023-01-06T22:00:11.397Z,101192.28
2023-01-06T22:02:40.335Z,101191.09
2023-01-06T22:05:08.967Z,101187.03
2023-01-06T22:07:37.903Z,101189.34
2023-01-06T22:10:06.542Z,101200.59
2023-01-06T22:12:34.791Z,101198.13
2023-01-06T22:15:03.464Z,101186.03
2023-01-06T22:17:32.106Z,101191.78
2023-01-06T22:20:01.668Z,101199.97
2023-01-06T22:22:29.654Z,101200.59
2023-01-06T22:24:57.957Z,101213.63
2023-01-06T22:27:25.644Z,101217.09
2023-01-06T22:29:53.300Z,101202.06
2023-01-06T22:32:21.358Z,101197.97
2023-01-06T22:34:49.289Z,101198.19
2023-01-06T22:37:18.460Z,101195.72
2023-01-06T22:39:46.767Z,101191.78
2023-01-06T22:42:14.606Z,101203.91
2023-01-06T22:44:42.766Z,101198.66
2023-01-06T22:47:10.515Z,101195.78
2023-01-06T22:49:38.076Z,101184.66
2023-01-06T22:52:06.396Z,101203.56
2023-01-06T22:54:35.470Z,101200.47
2023-01-06T22:57:03.309Z,101204.41
2023-01-06T22:59:30.956Z,101193.31
2023-01-06T23:01:58.894Z,101205.06
2023-01-06T23:04:27.237Z,101202.75
2023-01-06T23:06:54.778Z,101202.97
2023-01-06T23:09:22.330Z,101215.34
2023-01-06T23:11:51.372Z,101200.16
2023-01-06T23:14:18.961Z,101194.38
2023-01-06T23:16:47.107Z,101200.13
2023-01-06T23:19:16.899Z,101199.94
2023-01-06T23:21:45.533Z,101182.44
2023-01-06T23:24:13.983Z,101194.22
2023-01-06T23:26:43.431Z,101192.97
2023-01-06T23:29:13.368Z,101185.72
2023-01-06T23:31:42.392Z,101187.63
2023-01-06T23:34:11.345Z,101184.72
2023-01-06T23:36:39.725Z,101181.63
2023-01-06T23:39:10.065Z,101176.25
2023-01-06T23:41:38.279Z,101174.84
2023-01-06T23:44:06.646Z,101182.50
2023-01-06T23:46:36.897Z,101173.19
2023-01-06T23:49:04.675Z,101171.94
2023-01-06T23:51:32.732Z,101173.19
2023-01-06T23:54:00.420Z,101183.91
2023-01-06T23:56:29.481Z,101189.28
2023-01-06T23:58:58.603Z,101179.81
